createdAt,value
2022-08-17T00:02:22.445Z,98713.66
2022-08-17T00:07:29.784Z,98703.31
2022-08-17T00:12:43.259Z,98704.13
2022-08-17T00:17:50.122Z,98709.31
2022-08-17T00:23:03.799Z,98702.22
2022-08-17T00:28:07.519Z,98694.63
2022-08-17T00:33:16.622Z,98694.34
2022-08-17T00:38:20.124Z,98686.47
2022-08-17T00:43:29.090Z,98681.28
2022-08-17T00:48:34.201Z,98688.66
2022-08-17T00:53:40.343Z,98685.13
2022-08-17T00:58:43.277Z,98669.63
2022-08-17T01:03:47.484Z,98669.09
2022-08-17T01:08:51.943Z,98673.69
2022-08-17T01:14:00.452Z,98681.84
2022-08-17T01:19:12.360Z,98678.31
2022-08-17T01:24:17.269Z,98676.16
2022-08-17T01:29:21.448Z,98683.50
2022-08-17T01:34:24.913Z,98685.94
2022-08-17T01:39:44.149Z,98684.84
2022-08-17T01:44:46.940Z,98694.06
2022-08-17T01:49:50.723Z,98689.19
2022-08-17T01:54:55.325Z,98680.22
2022-08-17T01:59:58.075Z,98693.00
2022-08-17T02:05:00.885Z,98691.63
2022-08-17T02:10:05.240Z,98694.59
2022-08-17T02:15:22.759Z,98686.19
2022-08-17T02:20:41.591Z,98686.44
2022-08-17T02:25:48.705Z,98692.41
2022-08-17T02:31:01.081Z,98687.28
2022-08-17T02:36:06.571Z,98692.69
2022-08-17T02:41:12.993Z,98684.00
2022-08-17T02:46:15.739Z,98677.22
2022-08-17T02:51:19.137Z,98681.00
2022-08-17T02:56:23.514Z,98678.81
2022-08-17T03:01:27.962Z,98675.03
2022-08-17T03:06:31.761Z,98672.84
2022-08-17T03:11:36.055Z,98678.56
2022-08-17T03:16:38.893Z,98679.91
2022-08-17T03:21:42.095Z,98672.28
2022-08-17T03:26:46.191Z,98673.34
2022-08-17T03:31:49.386Z,98670.34
2022-08-17T03:36:52.084Z,98674.41
2022-08-17T03:41:56.457Z,98681.44
2022-08-17T03:47:16.986Z,98671.16
2022-08-17T03:52:37.350Z,98669.25
2022-08-17T03:57:41.602Z,98667.91
2022-08-17T04:02:44.537Z,98666.81
2022-08-17T04:07:47.332Z,98676.56
2022-08-17T04:12:54.497Z,98682.53
2022-08-17T04:17:57.504Z,98688.00
2022-08-17T04:23:03.104Z,98694.50
2022-08-17T04:28:15.538Z,98700.19
2022-08-17T04:33:20.733Z,98702.34
2022-08-17T04:38:26.540Z,98707.78
2022-08-17T04:43:32.733Z,98706.97
2022-08-17T04:48:38.001Z,98700.50
2022-08-17T04:53:41.496Z,98701.03
2022-08-17T04:58:46.191Z,98699.94
2022-08-17T05:03:48.861Z,98702.66
2022-08-17T05:08:52.083Z,98702.38
2022-08-17T05:13:57.712Z,98715.94
2022-08-17T05:19:00.404Z,98712.41
2022-08-17T05:24:04.469Z,98699.41
2022-08-17T05:29:11.140Z,98707.81
2022-08-17T05:34:13.802Z,98702.41
2022-08-17T05:39:17.407Z,98692.09
2022-08-17T05:44:21.515Z,98695.63
2022-08-17T05:49:28.095Z,98702.97
2022-08-17T05:54:39.902Z,98702.16
2022-08-17T05:59:49.752Z,98704.88
2022-08-17T06:05:06.360Z,98682.88
2022-08-17T06:10:14.583Z,98682.06
2022-08-17T06:15:26.241Z,98673.94
2022-08-17T06:20:31.550Z,98684.81
2022-08-17T06:25:37.988Z,98675.84
2022-08-17T06:30:59.633Z,98689.16
2022-08-17T06:36:11.472Z,98720.38
2022-08-17T06:41:24.761Z,98710.91
2022-08-17T06:46:35.905Z,98739.41
2022-08-17T06:51:40.700Z,98740.22
2022-08-17T06:56:54.203Z,98756.00
2022-08-17T07:02:05.195Z,98765.22
2022-08-17T07:07:24.440Z,98765.81
2022-08-17T07:12:30.214Z,98759.03
2022-08-17T07:17:46.522Z,98768.81
2022-08-17T07:22:59.815Z,98777.25
2022-08-17T07:28:06.797Z,98775.06
2022-08-17T07:33:14.009Z,98776.69
2022-08-17T07:38:26.346Z,98770.72
2022-08-17T07:43:31.473Z,98769.91
2022-08-17T07:48:37.895Z,98772.34
2022-08-17T07:53:41.548Z,98785.13
2022-08-17T07:58:44.185Z,98782.69
2022-08-17T08:03:50.466Z,98779.44
2022-08-17T08:08:57.145Z,98807.69
2022-08-17T08:14:18.682Z,98817.75
2022-08-17T08:19:25.013Z,98814.22
2022-08-17T08:24:40.650Z,98813.41
2022-08-17T08:29:50.127Z,98817.47
2022-08-17T08:35:02.739Z,98818.28
2022-08-17T08:40:13.019Z,98826.72
2022-08-17T08:45:19.828Z,98822.63
2022-08-17T08:50:37.929Z,98821.81
2022-08-17T08:55:49.846Z,98808.22
2022-08-17T09:00:55.975Z,98811.50
2022-08-17T09:06:32.457Z,98809.59
2022-08-17T09:12:01.938Z,98802.81
2022-08-17T09:17:04.598Z,98796.28
2022-08-17T09:22:17.359Z,98797.34
2022-08-17T09:27:21.984Z,98802.25
2022-08-17T09:32:29.749Z,98809.03
2022-08-17T09:37:38.375Z,98819.09
2022-08-17T09:42:46.952Z,98813.13
2022-08-17T09:47:53.971Z,98826.72
2022-08-17T09:53:00.003Z,98830.53
2022-08-17T09:58:08.086Z,98838.13
2022-08-17T10:03:25.302Z,98845.47
2022-08-17T10:08:37.485Z,98843.03
2022-08-17T10:13:52.650Z,98841.66
2022-08-17T10:19:09.087Z,98847.94
2022-08-17T10:24:34.271Z,98839.78
2022-08-17T10:29:48.530Z,98825.66
2022-08-17T10:35:02.672Z,98824.00
2022-08-17T10:40:20.654Z,98835.97
2022-08-17T10:45:26.849Z,98837.34
2022-08-17T10:50:50.552Z,98830.53
2022-08-17T10:56:41.871Z,98812.88
2022-08-17T11:01:59.934Z,98817.75
2022-08-17T11:07:08.072Z,98821.84
2022-08-17T11:12:20.319Z,98828.63
2022-08-17T11:17:38.898Z,98834.88
2022-08-17T11:23:04.141Z,98846.56
2022-08-17T11:28:15.179Z,98848.81
2022-08-17T11:33:54.231Z,98850.16
2022-08-17T11:39:02.710Z,98840.34
2022-08-17T11:44:18.714Z,98827.56
2022-08-17T11:50:00.014Z,98828.41
2022-08-17T11:55:24.132Z,98837.38
2022-08-17T12:00:51.305Z,98828.38
2022-08-17T12:06:04.293Z,98830.81
2022-08-17T12:11:11.116Z,98840.59
2022-08-17T12:16:18.061Z,98839.25
2022-08-17T12:21:30.884Z,98836.25
2022-08-17T12:26:36.107Z,98831.06
2022-08-17T12:31:44.688Z,98831.91
2022-08-17T12:36:48.162Z,98819.13
2022-08-17T12:41:52.785Z,98816.94
2022-08-17T12:47:01.699Z,98824.00
2022-08-17T12:52:09.257Z,98821.28
2022-08-17T12:57:14.175Z,98828.09
2022-08-17T13:02:39.882Z,98822.88
2022-08-17T13:07:43.532Z,98822.88
2022-08-17T13:12:47.905Z,98833.78
2022-08-17T13:18:00.184Z,98836.50
2022-08-17T13:23:11.981Z,98844.09
2022-08-17T13:28:18.676Z,98833.78
2022-08-17T13:33:44.568Z,98826.41
2022-08-17T13:38:50.944Z,98827.78
2022-08-17T13:43:53.673Z,98829.97
2022-08-17T13:49:04.622Z,98825.03
2022-08-17T13:54:19.826Z,98828.59
2022-08-17T13:59:53.041Z,98825.59
2022-08-17T14:04:52.931Z,98822.06
2022-08-17T14:09:58.904Z,98828.31
2022-08-17T14:15:02.255Z,98824.53
2022-08-17T14:20:10.189Z,98824.22
2022-08-17T14:25:15.122Z,98827.22
2022-08-17T14:30:19.785Z,98820.69
2022-08-17T14:35:24.605Z,98823.13
2022-08-17T14:40:28.018Z,98822.84
2022-08-17T14:45:33.248Z,98826.66
2022-08-17T14:50:41.007Z,98815.47
2022-08-17T14:55:45.787Z,98812.25
2022-08-17T15:00:50.918Z,98817.69
2022-08-17T15:05:55.244Z,98811.69
2022-08-17T15:10:57.992Z,98813.56
2022-08-17T15:16:00.839Z,98804.88
2022-08-17T15:21:05.667Z,98794.81
2022-08-17T15:26:08.570Z,98791.78
2022-08-17T15:31:11.335Z,98794.00
2022-08-17T15:36:16.171Z,98794.50
2022-08-17T15:41:19.362Z,98789.59
2022-08-17T15:46:23.831Z,98782.53
2022-08-17T15:51:31.227Z,98786.88
2022-08-17T15:56:33.927Z,98785.84
2022-08-17T16:02:29.881Z,98778.72
2022-08-17T16:07:01.201Z,98790.72
2022-08-17T16:12:14.377Z,98795.59
2022-08-17T16:17:40.291Z,98816.00
2022-08-17T16:22:46.498Z,98811.94
2022-08-17T16:27:53.078Z,98806.50
2022-08-17T16:32:57.140Z,98819.53
2022-08-17T16:38:02.650Z,98824.72
2022-08-17T16:43:07.027Z,98828.25
2022-08-17T16:48:10.358Z,98823.06
2022-08-17T16:53:17.667Z,98818.47
2022-08-17T16:58:20.653Z,98813.28
2022-08-17T17:03:26.149Z,98809.47
2022-08-17T17:08:34.091Z,98811.38
2022-08-17T17:13:42.080Z,98818.19
2022-08-17T17:19:00.129Z,98820.63
2022-08-17T17:24:08.082Z,98820.91
2022-08-17T17:29:29.609Z,98819.81
2022-08-17T17:34:53.769Z,98844.03
2022-08-17T17:40:01.251Z,98849.22
2022-08-17T17:45:09.193Z,98855.50
2022-08-17T17:50:12.048Z,98855.22
2022-08-17T17:55:24.263Z,98867.19
2022-08-17T18:00:33.009Z,98871.81
2022-08-17T18:05:44.540Z,98858.75
2022-08-17T18:10:55.702Z,98863.09
2022-08-17T18:16:01.014Z,98863.91
2022-08-17T18:21:06.641Z,98846.22
2022-08-17T18:26:10.693Z,98849.22
2022-08-17T18:31:18.547Z,98860.94
2022-08-17T18:36:29.398Z,98870.47
2022-08-17T18:41:41.303Z,98877.28
2022-08-17T18:46:44.111Z,98890.91
2022-08-17T18:51:47.217Z,98891.47
2022-08-17T18:56:53.237Z,98911.31
2022-08-17T19:02:45.144Z,98915.97
2022-08-17T19:07:48.794Z,98917.84
2022-08-17T19:13:00.792Z,98932.84
2022-08-17T19:18:06.770Z,98936.38
2022-08-17T19:23:17.598Z,98930.38
2022-08-17T19:28:24.645Z,98941.81
2022-08-17T19:33:27.921Z,98931.19
2022-08-17T19:38:40.143Z,98936.91
2022-08-17T19:44:15.419Z,98928.47
2022-08-17T19:49:33.516Z,98930.94
2022-08-17T19:54:47.853Z,98937.72
2022-08-17T19:59:55.677Z,98942.84
2022-08-17T20:05:02.968Z,98943.38
2022-08-17T20:10:08.903Z,98939.25
2022-08-17T20:15:18.483Z,98958.00
2022-08-17T20:20:25.114Z,98935.22
2022-08-17T20:25:33.838Z,98936.03
2022-08-17T20:30:39.992Z,98947.91
2022-08-17T20:36:02.255Z,98954.44
2022-08-17T20:41:12.544Z,98956.66
2022-08-17T20:46:28.064Z,98958.03
2022-08-17T20:51:33.353Z,98959.88
2022-08-17T20:56:56.187Z,98956.00
2022-08-17T21:02:18.497Z,98962.44
2022-08-17T21:07:29.022Z,98957.97
2022-08-17T21:12:41.682Z,98970.75
2022-08-17T21:17:51.282Z,98962.53
2022-08-17T21:23:04.063Z,98960.22
2022-08-17T21:28:13.285Z,98957.41
2022-08-17T21:33:25.355Z,98957.97
2022-08-17T21:38:36.253Z,98964.56
2022-08-17T21:43:47.907Z,98963.00
2022-08-17T21:48:54.444Z,98970.88
2022-08-17T21:54:00.474Z,98986.53
2022-08-17T21:59:06.140Z,98984.13
2022-08-17T22:04:22.853Z,98983.88
2022-08-17T22:09:27.925Z,98990.97
2022-08-17T22:14:51.506Z,98987.44
2022-08-17T22:20:00.269Z,98994.50
2022-08-17T22:25:05.522Z,98983.25
2022-08-17T22:30:18.175Z,98977.25
2022-08-17T22:35:31.364Z,98994.00
2022-08-17T22:40:35.390Z,98993.63
2022-08-17T22:45:41.678Z,99000.56
2022-08-17T22:50:45.813Z,98999.25
2022-08-17T22:56:10.319Z,98996.56
2022-08-17T23:01:28.107Z,98997.06
2022-08-17T23:06:33.790Z,98999.47
2022-08-17T23:11:48.736Z,98998.09
2022-08-17T23:16:52.483Z,99004.66
2022-08-17T23:21:56.727Z,99005.13
2022-08-17T23:26:59.648Z,98995.69
2022-08-17T23:32:04.765Z,99001.13
2022-08-17T23:37:10.462Z,99004.84
2022-08-17T23:42:14.916Z,99020.63
2022-08-17T23:47:17.888Z,99025.13
2022-08-17T23:52:22.661Z,99020.72
2022-08-17T23:57:33.842Z,99023.16
